Greer, Arizona
Current Conditions -  °F | °C
As of 3:55 PM on Monday 20 Oct 2014 (Local Time) from KJTC Reporting Station
Light Rain Light Rain  
Wind Chill: 11°   Ceiling: 7000
Heat Index: 11°   Visibility: 10mi
Dew Point:   Wind: 8mph
Humidity: 82%   Direction: 20°NNE
Pressure: 30.18"   Gusts: NA
Location:  34.01°N, 109.46°W
Report Text: KJTC 202255Z AUTO 02007KT 10SM -RA FEW027 SCT049 BKN070 11/08 A3018 RMK AO2 LTG DSNT S AND W P0004
Loading
Personal Weather Stations






























Interactive Weather Map
Tropical Storm Tracking
New forecast layout! Learn more

10-Day Weather Forecast

Advertisements
Track Severe Weather on mobile